Погода Гуасуина неделю

Эспирито-Санто, Бразилия

12 - 18 июля
  • 12июля
    Сегодня
    +15°
    +30°
    Ясно и безоблачно
    ВремяПогодаТемператураВлажностьДавлениеВетер, м/сВероятность осадков
    00:00Практически безоблачно+17°C81 %715 мм0.8 м/с5 %
    03:00Ясно и безоблачно+18°C75 %715 мм0.7 м/с5 %
    06:00Ясно и безоблачно+16°C74 %715 мм1.1 м/с5 %
    09:00Ясно и безоблачно+21°C60 %717 мм0.5 м/с5 %
    12:00Ясно и безоблачно+26°C49 %717 мм1.2 м/с5 %
    15:00Ясно и безоблачно+29°C44 %716 мм2.0 м/с5 %
    18:00Ясно и безоблачно+20°C68 %715 мм2.0 м/с5 %
    21:00Ясно и безоблачно+18°C89 %717 мм1.2 м/с3 %
  • 13июля
    Суббота
    +14°
    +28°
    Ясно и безоблачно
    ВремяПогодаТемператураВлажностьДавлениеВетер, м/сВероятность осадков
    00:00Небольшая облачность+16°C97 %716 мм0.7 м/с12 %
    03:00Облачно с прояснениями+15°C98 %715 мм1.3 м/с22 %
    06:00Пасмурно, сплошная облачность+15°C98 %716 мм0.7 м/с31 %
    09:00Практически безоблачно+20°C83 %717 мм1.8 м/с43 %
    12:00Ясно и безоблачно+24°C56 %716 мм2.8 м/с24 %
    15:00Ясно и безоблачно+28°C49 %716 мм3.0 м/с11 %
    18:00Облачно с прояснениями+20°C66 %715 мм1.6 м/с9 %
    21:00Небольшая облачность+18°C83 %716 мм0.3 м/с7 %
  • 14июля
    Воскресенье
    +11°
    +28°
    Облачно с прояснениями
    ВремяПогодаТемператураВлажностьДавлениеВетер, м/сВероятность осадков
    00:00Практически безоблачно+16°C83 %715 мм0.9 м/с2 %
    03:00Небольшая облачность+16°C80 %714 мм0.8 м/с5 %
    06:00Практически безоблачно+15°C72 %714 мм1.1 м/с5 %
    09:00Небольшая облачность+20°C61 %716 мм1.1 м/с5 %
    12:00Облачно с прояснениями+25°C47 %716 мм3.3 м/с5 %
    15:00Облачно с прояснениями+28°C42 %714 мм3.0 м/с3 %
    18:00Облачно с прояснениями+19°C63 %714 мм2.2 м/с5 %
    21:00Небольшая облачность+16°C79 %714 мм0.9 м/с5 %
  • 15июля
    Понедельник
    +12°
    +28°
    Облачно с прояснениями
    ВремяПогодаТемператураВлажностьДавлениеВетер, м/сВероятность осадков
    00:00Практически безоблачно+14°C80 %714 мм0.4 м/с5 %
    03:00Ясно и безоблачно+13°C87 %713 мм0.7 м/с5 %
    06:00Ясно и безоблачно+12°C88 %713 мм0.4 м/с5 %
    09:00Ясно и безоблачно+20°C67 %716 мм0.5 м/с5 %
    12:00Небольшая облачность+25°C46 %716 мм0.9 м/с5 %
    15:00Облачно с прояснениями+28°C43 %715 мм2.3 м/с5 %
    18:00Облачно с прояснениями+19°C61 %715 мм0.3 м/с5 %
    21:00Практически безоблачно+17°C75 %716 мм1.0 м/с5 %
  • 16июля
    Вторник
    +12°
    +29°
    Облачно с прояснениями
    ВремяПогодаТемператураВлажностьДавлениеВетер, м/сВероятность осадков
    00:00Ясно и безоблачно+15°C86 %716 мм1.2 м/с7 %
    03:00Ясно и безоблачно+15°C89 %715 мм0.4 м/с8 %
    06:00Небольшая облачность+12°C94 %715 мм1.3 м/с8 %
    09:00Ясно и безоблачно+19°C69 %717 мм0.8 м/с7 %
    12:00Небольшая облачность+25°C47 %716 мм1.4 м/с7 %
    15:00Облачно с прояснениями+28°C44 %716 мм1.1 м/с7 %
    18:00Облачно с прояснениями+19°C64 %715 мм2.1 м/с9 %
    21:00Небольшая облачность+18°C88 %717 мм0.8 м/с10 %
Мы используем cookies
Соглашаюсь